createdAt,value
2023-05-14T00:00:22.993Z,1002.06
2023-05-14T00:01:22.757Z,1002.05
2023-05-14T00:02:23.704Z,1002.06
2023-05-14T00:03:22.781Z,1002.06
2023-05-14T00:04:22.715Z,1002.01
2023-05-14T00:05:22.649Z,1001.97
2023-05-14T00:06:22.704Z,1002.04
2023-05-14T00:07:22.662Z,1002.03
2023-05-14T00:08:22.616Z,1002.03
2023-05-14T00:09:22.627Z,1002.01
2023-05-14T00:10:22.782Z,1002.02
2023-05-14T00:11:22.671Z,1002.12
2023-05-14T00:12:22.583Z,1002.13
2023-05-14T00:13:22.647Z,1002.05
2023-05-14T00:14:22.560Z,1002.07
2023-05-14T00:15:22.552Z,1002.08
2023-05-14T00:16:22.592Z,1002.16
2023-05-14T00:17:22.602Z,1002.09
2023-05-14T00:18:22.589Z,1002.07
2023-05-14T00:19:22.530Z,1002.07
2023-05-14T00:20:22.893Z,1002.00
2023-05-14T00:21:22.520Z,1002.05
2023-05-14T00:22:23.348Z,1002.09
2023-05-14T00:23:22.520Z,1001.99
2023-05-14T00:24:22.525Z,1002.03
2023-05-14T00:25:22.500Z,1002.07
2023-05-14T00:26:22.480Z,1002.07
2023-05-14T00:27:22.508Z,1002.10
2023-05-14T00:28:22.488Z,1002.05
2023-05-14T00:29:22.466Z,1002.09
2023-05-14T00:30:22.589Z,1002.10
2023-05-14T00:31:23.439Z,1002.05
2023-05-14T00:32:22.433Z,1002.04
2023-05-14T00:33:22.486Z,1002.03
2023-05-14T00:34:22.425Z,1002.00
2023-05-14T00:35:22.432Z,1002.03
2023-05-14T00:36:22.433Z,1002.00
2023-05-14T00:37:22.412Z,1002.02
2023-05-14T00:38:22.423Z,1002.01
2023-05-14T00:39:23.421Z,1001.98
2023-05-14T00:40:22.736Z,1001.97
2023-05-14T00:41:22.372Z,1001.92
2023-05-14T00:42:22.370Z,1001.91
2023-05-14T00:43:22.364Z,1001.92
2023-05-14T00:44:23.340Z,1001.98
2023-05-14T00:45:22.360Z,1001.94
2023-05-14T00:46:22.353Z,1001.96
2023-05-14T00:47:22.351Z,1001.93
2023-05-14T00:48:22.322Z,1001.92
2023-05-14T00:49:22.340Z,1001.94
2023-05-14T00:50:22.514Z,1001.97
2023-05-14T00:51:22.309Z,1001.95
2023-05-14T00:52:22.314Z,1001.96
2023-05-14T00:53:22.275Z,1001.99
2023-05-14T00:54:22.260Z,1001.91
2023-05-14T00:55:22.270Z,1001.94
2023-05-14T00:56:22.361Z,1001.98
2023-05-14T00:57:22.241Z,1001.95
2023-05-14T00:58:22.236Z,1001.98
2023-05-14T00:59:22.250Z,1001.97
2023-05-14T01:00:22.367Z,1002.00
2023-05-14T01:01:22.313Z,1001.90
2023-05-14T01:02:22.344Z,1001.89
2023-05-14T01:03:22.290Z,1001.90
2023-05-14T01:04:22.225Z,1001.93
2023-05-14T01:05:22.190Z,1001.94
2023-05-14T01:06:22.247Z,1001.96
2023-05-14T01:07:22.175Z,1001.94
2023-05-14T01:08:22.158Z,1001.91
2023-05-14T01:09:22.211Z,1001.91
2023-05-14T01:10:22.349Z,1001.95
2023-05-14T01:11:22.180Z,1001.94
2023-05-14T01:12:22.162Z,1001.95
2023-05-14T01:13:22.104Z,1001.95
2023-05-14T01:14:22.170Z,1001.97
2023-05-14T01:15:22.201Z,1001.93
2023-05-14T01:16:22.264Z,1001.94
2023-05-14T01:17:22.118Z,1001.94
2023-05-14T01:18:22.106Z,1001.93
2023-05-14T01:19:22.100Z,1001.90
2023-05-14T01:20:22.318Z,1001.92
2023-05-14T01:21:22.107Z,1001.93
2023-05-14T01:22:22.126Z,1001.89
2023-05-14T01:23:22.053Z,1001.90
2023-05-14T01:24:22.042Z,1001.84
2023-05-14T01:25:22.108Z,1001.91
2023-05-14T01:26:22.063Z,1001.93
2023-05-14T01:27:22.015Z,1001.85
2023-05-14T01:28:22.084Z,1001.90
2023-05-14T01:29:22.022Z,1001.89
2023-05-14T01:30:22.132Z,1001.88
2023-05-14T01:31:21.994Z,1001.90
2023-05-14T01:32:22.018Z,1001.89
2023-05-14T01:33:22.004Z,1001.84
2023-05-14T01:34:21.992Z,1001.87
2023-05-14T01:35:21.963Z,1001.94
2023-05-14T01:36:21.961Z,1001.79
2023-05-14T01:37:54.814Z,1001.81
2023-05-14T01:38:21.972Z,1001.92
2023-05-14T01:39:21.937Z,1001.85
2023-05-14T01:40:21.992Z,1001.83
2023-05-14T01:41:21.933Z,1001.83
2023-05-14T01:42:21.910Z,1001.82
2023-05-14T01:43:21.975Z,1001.81
2023-05-14T01:44:21.926Z,1001.81
2023-05-14T01:45:21.890Z,1001.86
2023-05-14T01:46:21.881Z,1001.74
2023-05-14T01:47:21.877Z,1001.76
2023-05-14T01:48:21.842Z,1001.74
2023-05-14T01:49:21.888Z,1001.79
2023-05-14T01:50:22.023Z,1001.86
2023-05-14T01:51:21.902Z,1001.76
2023-05-14T01:52:21.843Z,1001.85
2023-05-14T01:53:21.816Z,1001.79
2023-05-14T01:54:21.804Z,1001.76
2023-05-14T01:55:21.825Z,1001.74
2023-05-14T01:56:21.832Z,1001.71
2023-05-14T01:57:21.816Z,1001.69
2023-05-14T01:58:21.789Z,1001.74
2023-05-14T01:59:21.765Z,1001.72
2023-05-14T02:00:21.909Z,1001.77
2023-05-14T02:01:21.793Z,1001.74
2023-05-14T02:02:21.742Z,1001.66
2023-05-14T02:03:21.738Z,1001.74
2023-05-14T02:04:21.805Z,1001.68
2023-05-14T02:05:21.773Z,1001.71
2023-05-14T02:06:21.722Z,1001.67
2023-05-14T02:07:21.726Z,1001.72
2023-05-14T02:08:21.704Z,1001.72
2023-05-14T02:09:21.709Z,1001.72
2023-05-14T02:10:21.809Z,1001.74
2023-05-14T02:11:21.681Z,1001.71
2023-05-14T02:12:21.657Z,1001.77
2023-05-14T02:13:21.674Z,1001.74
2023-05-14T02:14:21.677Z,1001.72
2023-05-14T02:15:21.689Z,1001.69
2023-05-14T02:16:22.746Z,1001.72
2023-05-14T02:17:21.707Z,1001.72
2023-05-14T02:18:21.650Z,1001.68
2023-05-14T02:19:21.656Z,1001.60
2023-05-14T02:20:21.840Z,1001.57
2023-05-14T02:21:21.660Z,1001.58
2023-05-14T02:22:21.607Z,1001.59
2023-05-14T02:23:31.006Z,1001.53
2023-05-14T02:24:23.569Z,1001.55
2023-05-14T02:25:21.686Z,1001.57
2023-05-14T02:26:21.585Z,1001.49
2023-05-14T02:27:21.592Z,1001.50
2023-05-14T02:28:21.626Z,1001.50
2023-05-14T02:29:21.550Z,1001.53
2023-05-14T02:30:21.724Z,1001.51
2023-05-14T02:31:22.370Z,1001.47
2023-05-14T02:32:21.571Z,1001.45
2023-05-14T02:33:21.686Z,1001.46
2023-05-14T02:34:21.580Z,1001.50
2023-05-14T02:35:21.521Z,1001.42
2023-05-14T02:36:21.546Z,1001.43
2023-05-14T02:37:21.526Z,1001.40
2023-05-14T02:38:21.510Z,1001.33
2023-05-14T02:39:21.495Z,1001.38
2023-05-14T02:40:21.565Z,1001.38
2023-05-14T02:41:21.500Z,1001.37
2023-05-14T02:42:21.458Z,1001.38
2023-05-14T02:43:21.468Z,1001.40
2023-05-14T02:44:21.434Z,1001.37
2023-05-14T02:45:21.434Z,1001.37
2023-05-14T02:46:21.506Z,1001.39
2023-05-14T02:47:21.507Z,1001.41
2023-05-14T02:48:21.406Z,1001.36
2023-05-14T02:49:21.961Z,1001.35
2023-05-14T02:50:21.706Z,1001.38
2023-05-14T02:51:21.408Z,1001.42
2023-05-14T02:52:21.409Z,1001.42
2023-05-14T02:53:21.360Z,1001.44
2023-05-14T02:54:21.383Z,1001.44
2023-05-14T02:55:21.383Z,1001.50
2023-05-14T02:56:21.393Z,1001.46
2023-05-14T02:57:21.969Z,1001.50
2023-05-14T02:58:25.352Z,1001.40
2023-05-14T02:59:22.901Z,1001.47
2023-05-14T03:00:21.711Z,1001.46
2023-05-14T03:01:21.394Z,1001.48
2023-05-14T03:02:21.362Z,1001.46
2023-05-14T03:03:21.408Z,1001.45
2023-05-14T03:04:21.322Z,1001.45
2023-05-14T03:05:21.340Z,1001.47
2023-05-14T03:06:21.365Z,1001.46
2023-05-14T03:07:21.283Z,1001.46
2023-05-14T03:08:21.281Z,1001.50
2023-05-14T03:09:21.297Z,1001.46
2023-05-14T03:10:21.404Z,1001.50
2023-05-14T03:11:21.288Z,1001.45
2023-05-14T03:12:21.274Z,1001.48
2023-05-14T03:13:21.267Z,1001.47
2023-05-14T03:14:21.213Z,1001.47
2023-05-14T03:15:21.270Z,1001.51
2023-05-14T03:16:21.257Z,1001.52
2023-05-14T03:17:21.300Z,1001.44
2023-05-14T03:18:21.210Z,1001.49
2023-05-14T03:19:21.179Z,1001.45
2023-05-14T03:20:21.310Z,1001.45
2023-05-14T03:21:21.200Z,1001.43
2023-05-14T03:22:21.171Z,1001.43
2023-05-14T03:23:21.202Z,1001.46
2023-05-14T03:24:21.128Z,1001.48
2023-05-14T03:25:21.168Z,1001.40
2023-05-14T03:26:21.912Z,1001.41
2023-05-14T03:27:21.162Z,1001.39
2023-05-14T03:28:21.144Z,1001.42
2023-05-14T03:29:21.112Z,1001.41
2023-05-14T03:30:21.395Z,1001.41
2023-05-14T03:31:21.193Z,1001.47
2023-05-14T03:32:21.120Z,1001.39
2023-05-14T03:33:21.078Z,1001.40
2023-05-14T03:34:21.079Z,1001.30
2023-05-14T03:35:21.100Z,1001.35
2023-05-14T03:36:21.062Z,1001.32
2023-05-14T03:37:21.060Z,1001.36
2023-05-14T03:38:21.094Z,1001.37
2023-05-14T03:39:21.086Z,1001.34
2023-05-14T03:40:21.392Z,1001.37
2023-05-14T03:41:21.036Z,1001.30
2023-05-14T03:42:21.014Z,1001.30
2023-05-14T03:43:20.983Z,1001.36
2023-05-14T03:44:21.025Z,1001.35
2023-05-14T03:45:21.000Z,1001.39
2023-05-14T03:46:20.999Z,1001.39
2023-05-14T03:47:20.974Z,1001.41
2023-05-14T04:03:16.121Z,1001.59
2023-05-14T04:04:15.945Z,1001.46
2023-05-14T04:05:17.107Z,1001.53
2023-05-14T04:06:17.124Z,1001.47
2023-05-14T04:07:17.109Z,1001.38
2023-05-14T04:08:17.072Z,1001.37
2023-05-14T04:09:17.036Z,1001.29
2023-05-14T04:10:17.044Z,1001.25
2023-05-14T04:11:17.053Z,1001.20
2023-05-14T04:12:16.998Z,1001.20
2023-05-14T04:13:17.018Z,1001.11
2023-05-14T04:14:17.012Z,1001.17
2023-05-14T04:15:17.018Z,1001.17
2023-05-14T04:16:17.101Z,1001.17
2023-05-14T04:17:17.005Z,1001.21
2023-05-14T04:18:17.016Z,1001.22
2023-05-14T04:19:17.040Z,1001.26
2023-05-14T04:20:16.963Z,1001.28
2023-05-14T04:21:16.968Z,1001.23
2023-05-14T04:22:17.017Z,1001.23
2023-05-14T04:23:16.927Z,1001.28
2023-05-14T04:24:16.963Z,1001.29
2023-05-14T04:25:16.945Z,1001.23
2023-05-14T04:26:16.906Z,1001.22
2023-05-14T04:27:16.930Z,1001.24
2023-05-14T04:28:16.916Z,1001.30
2023-05-14T04:29:16.932Z,1001.31
2023-05-14T04:30:16.926Z,1001.27
2023-05-14T04:31:16.978Z,1001.29
2023-05-14T04:32:16.876Z,1001.29
2023-05-14T04:33:16.905Z,1001.29
2023-05-14T04:34:16.871Z,1001.30
2023-05-14T04:35:16.873Z,1001.23
2023-05-14T04:36:16.831Z,1001.20
2023-05-14T04:37:16.897Z,1001.22
2023-05-14T04:38:16.826Z,1001.17
2023-05-14T04:39:16.838Z,1001.23
2023-05-14T04:40:16.875Z,1001.23
2023-05-14T04:41:16.857Z,1001.19
2023-05-14T04:42:16.818Z,1001.20
2023-05-14T04:43:16.787Z,1001.22
2023-05-14T04:44:16.781Z,1001.18
2023-05-14T04:45:16.772Z,1001.13
2023-05-14T04:46:16.839Z,1001.17
2023-05-14T04:47:16.753Z,1001.17
2023-05-14T04:48:16.747Z,1001.22
2023-05-14T04:49:16.729Z,1001.19
2023-05-14T04:50:16.753Z,1001.26
2023-05-14T04:51:16.788Z,1001.27
2023-05-14T04:52:16.698Z,1001.30
2023-05-14T04:53:16.709Z,1001.24
2023-05-14T04:54:16.732Z,1001.23
2023-05-14T04:55:16.682Z,1001.29
2023-05-14T04:56:16.775Z,1001.26
2023-05-14T04:57:16.663Z,1001.32
2023-05-14T04:58:16.709Z,1001.27
2023-05-14T04:59:16.671Z,1001.34
2023-05-14T05:00:17.646Z,1001.33
2023-05-14T05:01:16.689Z,1001.34
2023-05-14T05:02:17.658Z,1001.33
2023-05-14T05:03:17.833Z,1001.35
2023-05-14T05:04:16.748Z,1001.33
2023-05-14T05:05:16.754Z,1001.28
2023-05-14T05:06:16.685Z,1001.34
2023-05-14T05:07:18.017Z,1001.29
2023-05-14T05:08:16.580Z,1001.34
2023-05-14T05:09:16.588Z,1001.37
2023-05-14T05:10:16.581Z,1001.32
2023-05-14T05:11:16.589Z,1001.38
2023-05-14T05:12:16.556Z,1001.39
2023-05-14T05:13:16.555Z,1001.33
2023-05-14T05:14:16.531Z,1001.32
2023-05-14T05:15:16.534Z,1001.36
2023-05-14T05:16:16.549Z,1001.32
2023-05-14T05:17:16.522Z,1001.31
2023-05-14T05:18:16.533Z,1001.28
2023-05-14T05:19:16.719Z,1001.33
2023-05-14T05:20:16.503Z,1001.25
2023-05-14T05:21:16.452Z,1001.27
2023-05-14T05:22:16.470Z,1001.23
2023-05-14T05:23:16.573Z,1001.26
2023-05-14T05:24:17.140Z,1001.27
2023-05-14T05:25:16.448Z,1001.25
2023-05-14T05:26:16.435Z,1001.23
2023-05-14T05:27:16.451Z,1001.22
2023-05-14T05:28:16.456Z,1001.24
2023-05-14T05:29:16.473Z,1001.29
2023-05-14T05:30:16.448Z,1001.15
2023-05-14T05:31:18.324Z,1001.20
2023-05-14T05:32:16.393Z,1001.18
2023-05-14T05:33:16.384Z,1001.15
2023-05-14T05:34:16.399Z,1001.12
2023-05-14T05:35:16.401Z,1001.11
2023-05-14T05:36:16.353Z,1001.08
2023-05-14T05:37:16.357Z,1001.07
2023-05-14T05:38:16.389Z,1001.08
2023-05-14T05:39:16.375Z,1001.09
2023-05-14T05:40:16.385Z,1001.02
2023-05-14T05:41:16.328Z,1001.04
2023-05-14T05:42:16.369Z,1001.04
2023-05-14T05:43:16.309Z,1001.07
2023-05-14T05:44:16.306Z,1001.05
2023-05-14T05:45:16.339Z,1001.08
2023-05-14T05:46:16.421Z,1001.06
2023-05-14T05:47:16.255Z,1001.06
2023-05-14T05:48:16.259Z,1000.99
2023-05-14T05:49:16.282Z,1000.99
2023-05-14T05:50:16.884Z,1000.97
2023-05-14T05:51:16.329Z,1000.95
2023-05-14T05:52:16.226Z,1000.93
2023-05-14T05:53:16.242Z,1000.87
2023-05-14T05:54:16.254Z,1000.86
2023-05-14T05:55:16.244Z,1000.79
2023-05-14T05:56:16.217Z,1000.80
2023-05-14T05:57:16.216Z,1000.80
2023-05-14T05:58:16.270Z,1000.83
2023-05-14T05:59:16.172Z,1000.77
2023-05-14T06:00:17.189Z,1000.76
2023-05-14T06:01:16.216Z,1000.74
2023-05-14T06:02:16.228Z,1000.73
2023-05-14T06:03:16.217Z,1000.75
2023-05-14T06:04:16.171Z,1000.75
2023-05-14T06:05:16.297Z,1000.75
2023-05-14T06:06:17.199Z,1000.72
2023-05-14T06:07:16.122Z,1000.64
2023-05-14T06:08:17.144Z,1000.65
2023-05-14T06:09:16.648Z,1000.73
2023-05-14T06:10:16.108Z,1000.70
2023-05-14T06:11:17.751Z,1000.64
2023-05-14T06:12:16.098Z,1000.64
2023-05-14T06:13:16.098Z,1000.65
2023-05-14T06:14:16.051Z,1000.64
2023-05-14T06:15:16.074Z,1000.60
2023-05-14T06:16:16.074Z,1000.60
2023-05-14T06:17:16.051Z,1000.59
2023-05-14T06:18:16.108Z,1000.62
2023-05-14T06:19:16.179Z,1000.61
2023-05-14T06:20:16.002Z,1000.62
2023-05-14T06:21:16.025Z,1000.61
2023-05-14T06:22:16.042Z,1000.56
2023-05-14T06:23:16.026Z,1000.49
2023-05-14T06:24:15.997Z,1000.55
2023-05-14T06:25:15.990Z,1000.57
2023-05-14T06:26:15.995Z,1000.49
2023-05-14T06:27:15.961Z,1000.54
2023-05-14T06:28:16.751Z,1000.56
2023-05-14T06:29:15.955Z,1000.54
2023-05-14T06:30:15.977Z,1000.48
2023-05-14T06:31:15.913Z,1000.45
2023-05-14T06:32:15.984Z,1000.46
2023-05-14T06:33:15.927Z,1000.37
2023-05-14T06:34:15.899Z,1000.35
2023-05-14T06:35:15.899Z,1000.33
2023-05-14T06:36:15.870Z,1000.30
2023-05-14T06:37:15.877Z,1000.19
2023-05-14T06:38:16.091Z,1000.23
2023-05-14T06:39:15.897Z,1000.15
2023-05-14T06:40:16.662Z,1000.01
2023-05-14T06:41:15.850Z,999.94
2023-05-14T06:42:15.842Z,999.92
2023-05-14T06:43:15.836Z,999.89
2023-05-14T06:44:15.833Z,999.83
2023-05-14T06:45:16.636Z,999.82
2023-05-14T06:46:15.831Z,999.75
2023-05-14T06:47:15.786Z,999.66
2023-05-14T06:48:16.657Z,999.69
2023-05-14T06:49:16.802Z,999.64
2023-05-14T06:50:15.831Z,999.67
2023-05-14T06:51:15.756Z,999.54
2023-05-14T06:52:15.766Z,999.51
2023-05-14T06:53:15.786Z,999.47
2023-05-14T06:54:15.856Z,999.50
2023-05-14T06:55:15.747Z,999.45
2023-05-14T06:56:15.752Z,999.43
2023-05-14T06:57:15.727Z,999.34
2023-05-14T06:58:15.710Z,999.28
2023-05-14T06:59:15.719Z,999.24
2023-05-14T07:00:15.843Z,999.24
2023-05-14T07:01:15.792Z,999.16
2023-05-14T07:02:15.677Z,999.19
2023-05-14T07:03:16.664Z,999.18
2023-05-14T07:04:15.726Z,999.17
2023-05-14T07:05:15.658Z,999.13
2023-05-14T07:06:15.678Z,999.25
2023-05-14T07:07:15.671Z,999.14
2023-05-14T07:08:15.668Z,999.10
2023-05-14T07:09:15.640Z,999.05
2023-05-14T07:10:15.638Z,999.08
2023-05-14T07:11:15.662Z,999.04
2023-05-14T07:12:15.671Z,998.92
2023-05-14T07:13:15.662Z,998.90
2023-05-14T07:14:15.610Z,998.91
2023-05-14T07:15:15.650Z,998.85
2023-05-14T07:16:15.613Z,998.85
2023-05-14T07:17:15.667Z,998.82
2023-05-14T07:18:15.625Z,998.84
2023-05-14T07:19:15.696Z,998.67
2023-05-14T07:20:15.626Z,998.70
2023-05-14T07:21:15.574Z,998.69
2023-05-14T07:22:15.591Z,998.63
2023-05-14T07:23:16.244Z,998.64
2023-05-14T07:24:15.552Z,998.63
2023-05-14T07:25:15.540Z,998.65
2023-05-14T07:26:15.494Z,998.59
2023-05-14T07:27:15.571Z,998.64
2023-05-14T07:28:15.562Z,998.57
2023-05-14T07:29:15.495Z,998.61
2023-05-14T07:30:15.478Z,998.58
2023-05-14T07:31:15.480Z,998.57
2023-05-14T07:32:15.835Z,998.55
2023-05-14T07:33:16.459Z,998.55
2023-05-14T07:34:15.470Z,998.54
2023-05-14T07:35:15.433Z,998.48
2023-05-14T07:36:15.460Z,998.53
2023-05-14T07:37:15.406Z,998.51
2023-05-14T07:38:15.400Z,998.47
2023-05-14T07:39:15.432Z,998.45
2023-05-14T07:40:15.388Z,998.48
2023-05-14T07:41:15.382Z,998.47
2023-05-14T07:42:27.882Z,998.47
2023-05-14T07:43:17.367Z,998.45
2023-05-14T07:44:15.379Z,998.47
2023-05-14T07:45:15.377Z,998.47
2023-05-14T07:46:15.376Z,998.45
2023-05-14T07:47:15.491Z,998.44
2023-05-14T07:48:15.451Z,998.38
2023-05-14T07:49:15.333Z,998.39
2023-05-14T07:50:15.333Z,998.43
2023-05-14T07:51:15.316Z,998.46
2023-05-14T07:52:15.300Z,998.48
2023-05-14T07:53:15.303Z,998.52
2023-05-14T07:54:15.284Z,998.57
2023-05-14T07:55:15.313Z,998.53
2023-05-14T07:56:15.286Z,998.65
2023-05-14T07:57:15.304Z,998.70
2023-05-14T07:58:15.231Z,998.65
2023-05-14T07:59:15.239Z,998.65
2023-05-14T08:00:15.240Z,998.60
2023-05-14T08:01:15.312Z,998.60
2023-05-14T08:02:15.275Z,998.62
2023-05-14T08:03:15.297Z,998.58
2023-05-14T08:04:16.302Z,998.51
2023-05-14T08:05:15.185Z,998.49
2023-05-14T08:06:15.222Z,998.49
2023-05-14T08:07:15.211Z,998.49
2023-05-14T08:08:15.171Z,998.50
2023-05-14T08:09:15.164Z,998.37
2023-05-14T08:10:15.164Z,998.39
2023-05-14T08:11:15.182Z,998.46
2023-05-14T08:12:15.155Z,998.37
2023-05-14T08:13:15.091Z,998.38
2023-05-14T08:14:15.116Z,998.42
2023-05-14T08:15:15.112Z,998.35
2023-05-14T08:16:15.154Z,998.46
2023-05-14T08:17:15.226Z,998.39
2023-05-14T08:18:15.087Z,998.39
2023-05-14T08:19:15.107Z,998.43
2023-05-14T08:20:15.087Z,998.41
2023-05-14T08:21:15.055Z,998.35
2023-05-14T08:22:15.122Z,998.34
2023-05-14T08:23:15.038Z,998.29
2023-05-14T08:24:15.068Z,998.28
2023-05-14T08:25:15.013Z,998.25
2023-05-14T08:26:15.013Z,998.25
2023-05-14T08:27:15.021Z,998.28
2023-05-14T08:28:15.028Z,998.24
2023-05-14T08:29:16.612Z,998.20
2023-05-14T08:30:15.070Z,998.29
2023-05-14T08:31:15.014Z,998.34
2023-05-14T08:32:23.249Z,998.25
2023-05-14T08:33:17.041Z,998.30
2023-05-14T08:34:14.993Z,998.29
2023-05-14T08:35:14.953Z,998.34
2023-05-14T08:36:14.965Z,998.30
2023-05-14T08:37:14.982Z,998.35
2023-05-14T08:38:14.928Z,998.30
2023-05-14T08:39:14.970Z,998.32
2023-05-14T08:40:14.945Z,998.35
2023-05-14T08:41:14.894Z,998.40
2023-05-14T08:42:14.912Z,998.32
2023-05-14T08:43:14.910Z,998.27
2023-05-14T08:44:14.941Z,998.31
2023-05-14T08:45:14.917Z,998.40
2023-05-14T08:46:14.868Z,998.52
2023-05-14T08:47:14.873Z,998.46
2023-05-14T08:48:15.039Z,998.51
2023-05-14T08:49:14.857Z,998.46
2023-05-14T08:50:14.860Z,998.52
2023-05-14T08:51:14.831Z,998.52
2023-05-14T08:52:14.823Z,998.56
2023-05-14T08:53:14.802Z,998.49
2023-05-14T08:54:14.795Z,998.51
2023-05-14T08:55:14.842Z,998.49
2023-05-14T08:56:14.797Z,998.48
2023-05-14T08:57:14.831Z,998.55
2023-05-14T08:58:14.784Z,998.58
2023-05-14T08:59:14.785Z,998.50
2023-05-14T09:00:14.787Z,998.58
2023-05-14T09:01:14.803Z,998.56
2023-05-14T09:02:14.802Z,998.52
2023-05-14T09:03:14.798Z,998.51
2023-05-14T09:04:14.807Z,998.56
2023-05-14T09:05:14.754Z,998.59
2023-05-14T09:06:14.798Z,998.58
2023-05-14T09:07:14.715Z,998.69
2023-05-14T09:08:14.725Z,998.66
2023-05-14T09:09:14.685Z,998.64
2023-05-14T09:10:14.690Z,998.69
2023-05-14T09:11:14.781Z,998.62
2023-05-14T09:12:14.791Z,998.59
2023-05-14T09:13:15.592Z,998.68
2023-05-14T09:14:14.733Z,998.57
2023-05-14T09:15:14.690Z,998.55
2023-05-14T09:16:14.671Z,998.58
2023-05-14T09:17:14.690Z,998.61
2023-05-14T09:18:14.685Z,998.58
2023-05-14T09:19:14.673Z,998.54
2023-05-14T09:20:14.615Z,998.54
2023-05-14T09:21:14.609Z,998.59
2023-05-14T09:22:14.648Z,998.58
2023-05-14T09:23:14.581Z,998.57
2023-05-14T09:24:14.596Z,998.53
2023-05-14T09:25:14.610Z,998.60
2023-05-14T09:26:14.603Z,998.53
2023-05-14T09:27:14.611Z,998.52
2023-05-14T09:28:14.603Z,998.50
2023-05-14T09:29:14.703Z,998.54
2023-05-14T09:30:14.618Z,998.46
2023-05-14T09:31:14.590Z,998.50
2023-05-14T09:32:14.539Z,998.47
2023-05-14T09:33:14.530Z,998.51
2023-05-14T09:34:14.551Z,998.47
2023-05-14T09:35:14.513Z,998.41
2023-05-14T09:36:14.480Z,998.37
2023-05-14T09:37:14.557Z,998.39
2023-05-14T09:38:14.493Z,998.33
2023-05-14T09:39:14.529Z,998.30
2023-05-14T09:40:14.540Z,998.23
2023-05-14T09:41:14.486Z,998.20
2023-05-14T09:42:14.455Z,998.20
2023-05-14T09:43:14.459Z,998.19
2023-05-14T09:44:14.468Z,998.22
2023-05-14T09:45:14.428Z,998.19
2023-05-14T09:46:14.456Z,998.26
2023-05-14T09:47:14.456Z,998.21
2023-05-14T09:48:15.276Z,998.16
2023-05-14T09:49:15.420Z,998.09
2023-05-14T09:50:14.378Z,998.10
2023-05-14T09:51:14.387Z,998.09
2023-05-14T09:52:14.392Z,998.13
2023-05-14T09:53:14.385Z,998.14
2023-05-14T09:54:14.416Z,998.04
2023-05-14T09:55:14.405Z,998.04
2023-05-14T09:56:14.349Z,998.00
2023-05-14T09:57:14.343Z,997.98
2023-05-14T09:58:14.333Z,997.96
2023-05-14T09:59:14.345Z,998.01
2023-05-14T10:00:14.352Z,997.98
2023-05-14T10:01:14.377Z,998.00
2023-05-14T10:02:14.302Z,998.03
2023-05-14T10:03:14.708Z,998.00
2023-05-14T10:04:14.339Z,998.02
2023-05-14T10:05:14.303Z,997.98
2023-05-14T10:06:14.276Z,997.96
2023-05-14T10:07:14.275Z,997.97
2023-05-14T10:08:14.266Z,998.06
2023-05-14T10:09:14.327Z,998.13
2023-05-14T10:10:14.252Z,998.12
2023-05-14T10:11:15.073Z,998.03
2023-05-14T10:12:14.218Z,998.04
2023-05-14T10:13:14.280Z,998.08
2023-05-14T10:14:14.235Z,998.08
2023-05-14T10:15:14.178Z,998.09
2023-05-14T10:16:14.201Z,998.10
2023-05-14T10:17:14.215Z,998.10
2023-05-14T10:18:14.214Z,998.06
2023-05-14T10:19:14.227Z,998.05
2023-05-14T10:20:14.169Z,998.10
2023-05-14T10:21:14.176Z,998.06
2023-05-14T10:22:14.166Z,998.05
2023-05-14T10:23:14.149Z,998.06
2023-05-14T10:24:14.129Z,998.06
2023-05-14T10:25:14.134Z,998.08
2023-05-14T10:26:14.134Z,997.95
2023-05-14T10:27:14.129Z,998.14
2023-05-14T10:28:14.100Z,998.08
2023-05-14T10:29:14.100Z,998.06
2023-05-14T10:30:14.124Z,997.99
2023-05-14T10:31:14.153Z,997.96
2023-05-14T10:32:14.088Z,998.02
2023-05-14T10:33:14.160Z,997.97
2023-05-14T10:34:14.081Z,998.00
2023-05-14T10:35:14.061Z,997.98
2023-05-14T10:36:14.082Z,998.12
2023-05-14T10:37:14.084Z,998.09
2023-05-14T10:38:14.088Z,998.02
2023-05-14T10:39:14.121Z,997.96
2023-05-14T10:40:14.058Z,998.01
2023-05-14T10:41:14.009Z,997.94
2023-05-14T10:42:14.005Z,997.87
2023-05-14T10:43:14.053Z,997.85
2023-05-14T10:44:14.003Z,997.78
2023-05-14T10:45:13.989Z,997.82
2023-05-14T10:46:14.081Z,997.81
2023-05-14T10:47:13.972Z,997.99
2023-05-14T10:48:14.073Z,997.82
2023-05-14T10:49:14.006Z,997.86
2023-05-14T10:50:13.967Z,997.79
2023-05-14T10:51:13.982Z,997.96
2023-05-14T10:52:13.937Z,997.98
2023-05-14T10:53:13.921Z,997.98
2023-05-14T10:54:13.926Z,998.00
2023-05-14T10:55:13.960Z,998.07
2023-05-14T10:56:13.904Z,998.05
2023-05-14T10:57:13.909Z,998.02
2023-05-14T10:58:13.891Z,998.07
2023-05-14T10:59:13.973Z,998.07
2023-05-14T11:00:13.968Z,998.05
2023-05-14T11:01:13.908Z,998.15
2023-05-14T11:02:13.965Z,998.16
2023-05-14T11:03:14.077Z,998.10
2023-05-14T11:04:13.880Z,998.03
2023-05-14T11:05:14.042Z,998.07
2023-05-14T11:06:13.835Z,998.10
2023-05-14T11:07:13.842Z,998.05
2023-05-14T11:08:13.840Z,998.11
2023-05-14T11:09:13.839Z,997.97
2023-05-14T11:10:13.833Z,997.99
2023-05-14T11:11:13.845Z,997.93
2023-05-14T11:12:13.760Z,997.90
2023-05-14T11:13:13.837Z,997.84
2023-05-14T11:14:13.754Z,997.87
2023-05-14T11:15:13.807Z,997.80
2023-05-14T11:16:22.692Z,997.63
2023-05-14T11:17:15.838Z,997.63
2023-05-14T11:18:13.774Z,997.63
2023-05-14T11:19:13.965Z,997.60
2023-05-14T11:20:13.770Z,997.59
2023-05-14T11:21:13.744Z,997.55
2023-05-14T11:22:13.758Z,997.46
2023-05-14T11:23:13.768Z,997.45
2023-05-14T11:24:13.704Z,997.45
2023-05-14T11:25:13.790Z,997.38
2023-05-14T11:26:13.774Z,997.31
2023-05-14T11:27:13.700Z,997.25
2023-05-14T11:28:13.697Z,997.23
2023-05-14T11:29:13.657Z,997.29
2023-05-14T11:30:13.666Z,997.22
2023-05-14T11:31:13.668Z,997.29
2023-05-14T11:32:13.667Z,997.20
2023-05-14T11:33:13.661Z,997.23
2023-05-14T11:34:13.649Z,997.26
2023-05-14T11:35:13.651Z,997.14
2023-05-14T11:36:13.613Z,997.21
2023-05-14T11:37:13.600Z,997.22
2023-05-14T11:38:13.662Z,997.19
2023-05-14T11:39:13.586Z,997.27
2023-05-14T11:40:13.576Z,997.29
2023-05-14T11:41:13.556Z,997.33
2023-05-14T11:42:13.562Z,997.29
2023-05-14T11:43:13.585Z,997.33
2023-05-14T11:44:13.579Z,997.34
2023-05-14T11:45:13.558Z,997.22
2023-05-14T11:46:13.583Z,997.22
2023-05-14T11:47:13.511Z,997.26
2023-05-14T11:48:13.607Z,997.21
2023-05-14T11:49:13.513Z,997.29
2023-05-14T11:50:13.524Z,997.30
2023-05-14T11:51:14.370Z,997.28
2023-05-14T11:52:13.501Z,997.35
2023-05-14T11:53:13.531Z,997.30
2023-05-14T11:54:13.472Z,997.30
2023-05-14T11:55:13.510Z,997.31
2023-05-14T11:56:13.456Z,997.36
2023-05-14T11:57:13.516Z,997.37
2023-05-14T11:58:13.423Z,997.37
2023-05-14T11:59:13.429Z,997.37
2023-05-14T12:00:13.516Z,997.39
2023-05-14T12:01:13.422Z,997.42
2023-05-14T12:02:13.459Z,997.40
2023-05-14T12:03:13.574Z,997.38
2023-05-14T12:04:13.447Z,997.37
2023-05-14T12:05:13.435Z,997.41
2023-05-14T12:06:13.434Z,997.42
2023-05-14T12:07:13.382Z,997.48
2023-05-14T12:08:13.385Z,997.38
2023-05-14T12:09:14.305Z,997.40
2023-05-14T12:10:13.362Z,997.39
2023-05-14T12:11:13.335Z,997.41
2023-05-14T12:12:13.351Z,997.36
2023-05-14T12:13:13.356Z,997.38
2023-05-14T12:14:13.350Z,997.38
2023-05-14T12:15:13.308Z,997.44
2023-05-14T12:16:13.396Z,997.42
2023-05-14T12:17:13.305Z,997.36
2023-05-14T12:18:23.283Z,997.38
2023-05-14T12:19:15.370Z,997.37
2023-05-14T12:20:13.281Z,997.36
2023-05-14T12:21:13.289Z,997.36
2023-05-14T12:22:13.293Z,997.32
2023-05-14T12:23:13.260Z,997.34
2023-05-14T12:24:14.266Z,997.35
2023-05-14T12:25:13.292Z,997.38
2023-05-14T12:26:13.220Z,997.36
2023-05-14T12:27:13.210Z,997.40
2023-05-14T12:28:13.242Z,997.36
2023-05-14T12:29:13.222Z,997.39
2023-05-14T12:30:21.435Z,997.39
2023-05-14T12:31:15.270Z,997.36